sensor_id;sensor_type;location;lat;lon;timestamp;temperature;humidity
42965;DHT22;28604;51.204;22.552;2023-04-30T00:01:48;9.70;68.60
42965;DHT22;28604;51.204;22.552;2023-04-30T00:04:14;9.70;68.50
42965;DHT22;28604;51.204;22.552;2023-04-30T00:06:40;9.70;68.40
42965;DHT22;28604;51.204;22.552;2023-04-30T00:09:06;9.70;68.20
42965;DHT22;28604;51.204;22.552;2023-04-30T00:11:32;9.70;68.20
42965;DHT22;28604;51.204;22.552;2023-04-30T00:13:58;9.70;67.40
42965;DHT22;28604;51.204;22.552;2023-04-30T00:16:23;9.60;67.40
42965;DHT22;28604;51.204;22.552;2023-04-30T00:18:49;9.60;66.90
42965;DHT22;28604;51.204;22.552;2023-04-30T00:21:15;9.60;67.40
42965;DHT22;28604;51.204;22.552;2023-04-30T00:23:41;9.60;67.90
42965;DHT22;28604;51.204;22.552;2023-04-30T00:26:07;9.60;68.00
42965;DHT22;28604;51.204;22.552;2023-04-30T00:28:33;9.60;68.40
42965;DHT22;28604;51.204;22.552;2023-04-30T00:30:59;9.60;68.50
42965;DHT22;28604;51.204;22.552;2023-04-30T00:33:25;9.60;68.70
42965;DHT22;28604;51.204;22.552;2023-04-30T00:35:51;9.60;68.80
42965;DHT22;28604;51.204;22.552;2023-04-30T00:38:17;9.70;69.30
42965;DHT22;28604;51.204;22.552;2023-04-30T00:40:43;9.70;68.70
42965;DHT22;28604;51.204;22.552;2023-04-30T00:43:09;9.80;68.30
42965;DHT22;28604;51.204;22.552;2023-04-30T00:45:35;9.80;68.60
42965;DHT22;28604;51.204;22.552;2023-04-30T00:48:01;9.80;68.60
42965;DHT22;28604;51.204;22.552;2023-04-30T00:50:28;9.80;69.00
42965;DHT22;28604;51.204;22.552;2023-04-30T00:52:54;9.90;68.80
42965;DHT22;28604;51.204;22.552;2023-04-30T00:55:20;9.80;69.30
42965;DHT22;28604;51.204;22.552;2023-04-30T00:57:46;9.90;69.30
42965;DHT22;28604;51.204;22.552;2023-04-30T01:00:13;9.90;68.70
42965;DHT22;28604;51.204;22.552;2023-04-30T01:02:39;9.90;69.20
42965;DHT22;28604;51.204;22.552;2023-04-30T01:05:06;9.90;69.00
42965;DHT22;28604;51.204;22.552;2023-04-30T01:07:34;9.90;68.90
42965;DHT22;28604;51.204;22.552;2023-04-30T01:10:00;9.90;68.80
42965;DHT22;28604;51.204;22.552;2023-04-30T01:12:43;10.00;68.60
42965;DHT22;28604;51.204;22.552;2023-04-30T01:15:37;9.90;69.00
42965;DHT22;28604;51.204;22.552;2023-04-30T01:20:46;10.00;69.70
42965;DHT22;28604;51.204;22.552;2023-04-30T01:23:50;10.00;69.40
42965;DHT22;28604;51.204;22.552;2023-04-30T01:26:28;10.00;69.20
42965;DHT22;28604;51.204;22.552;2023-04-30T01:28:59;10.00;69.20
42965;DHT22;28604;51.204;22.552;2023-04-30T01:31:27;10.10;69.30
42965;DHT22;28604;51.204;22.552;2023-04-30T01:33:53;10.10;69.20
42965;DHT22;28604;51.204;22.552;2023-04-30T01:36:46;10.20;69.00
42965;DHT22;28604;51.204;22.552;2023-04-30T01:42:12;10.20;69.50
42965;DHT22;28604;51.204;22.552;2023-04-30T01:48:02;10.20;69.50
42965;DHT22;28604;51.204;22.552;2023-04-30T01:52:59;10.20;69.40
42965;DHT22;28604;51.204;22.552;2023-04-30T01:55:27;10.20;69.40
42965;DHT22;28604;51.204;22.552;2023-04-30T01:57:57;10.30;69.70
42965;DHT22;28604;51.204;22.552;2023-04-30T02:00:25;10.30;70.00
42965;DHT22;28604;51.204;22.552;2023-04-30T02:02:54;10.30;70.30
42965;DHT22;28604;51.204;22.552;2023-04-30T02:05:20;10.30;70.30
42965;DHT22;28604;51.204;22.552;2023-04-30T02:07:48;10.30;69.10
42965;DHT22;28604;51.204;22.552;2023-04-30T02:10:16;10.30;69.00
42965;DHT22;28604;51.204;22.552;2023-04-30T02:12:42;10.30;68.90
42965;DHT22;28604;51.204;22.552;2023-04-30T02:15:09;10.30;68.70
42965;DHT22;28604;51.204;22.552;2023-04-30T02:17:35;10.40;68.70
42965;DHT22;28604;51.204;22.552;2023-04-30T02:20:01;10.40;68.60
42965;DHT22;28604;51.204;22.552;2023-04-30T02:22:28;10.40;68.10
42965;DHT22;28604;51.204;22.552;2023-04-30T02:24:54;10.50;68.90
42965;DHT22;28604;51.204;22.552;2023-04-30T02:27:21;10.50;69.20
42965;DHT22;28604;51.204;22.552;2023-04-30T02:29:48;10.60;69.40
42965;DHT22;28604;51.204;22.552;2023-04-30T02:32:14;10.60;69.50
42965;DHT22;28604;51.204;22.552;2023-04-30T02:34:40;10.60;69.70
42965;DHT22;28604;51.204;22.552;2023-04-30T02:37:07;10.60;69.40
42965;DHT22;28604;51.204;22.552;2023-04-30T02:39:33;10.60;69.60
42965;DHT22;28604;51.204;22.552;2023-04-30T02:41:59;10.60;69.40
42965;DHT22;28604;51.204;22.552;2023-04-30T02:44:26;10.70;69.00
42965;DHT22;28604;51.204;22.552;2023-04-30T02:46:51;10.70;69.00
42965;DHT22;28604;51.204;22.552;2023-04-30T02:49:17;10.70;68.70
42965;DHT22;28604;51.204;22.552;2023-04-30T02:51:43;10.70;68.30
42965;DHT22;28604;51.204;22.552;2023-04-30T02:54:09;10.70;68.20
42965;DHT22;28604;51.204;22.552;2023-04-30T02:56:35;10.80;68.40
42965;DHT22;28604;51.204;22.552;2023-04-30T02:59:01;10.80;68.50
42965;DHT22;28604;51.204;22.552;2023-04-30T03:01:27;10.80;68.10
42965;DHT22;28604;51.204;22.552;2023-04-30T03:03:53;10.80;68.10
42965;DHT22;28604;51.204;22.552;2023-04-30T03:06:19;10.90;67.90
42965;DHT22;28604;51.204;22.552;2023-04-30T03:08:45;10.90;68.00
42965;DHT22;28604;51.204;22.552;2023-04-30T03:11:11;10.90;68.20
42965;DHT22;28604;51.204;22.552;2023-04-30T03:13:37;10.90;68.50
42965;DHT22;28604;51.204;22.552;2023-04-30T03:16:03;11.00;68.00
42965;DHT22;28604;51.204;22.552;2023-04-30T03:18:29;11.00;67.90
42965;DHT22;28604;51.204;22.552;2023-04-30T03:20:55;11.00;68.00
42965;DHT22;28604;51.204;22.552;2023-04-30T03:23:22;11.00;68.30
42965;DHT22;28604;51.204;22.552;2023-04-30T03:25:48;11.00;68.10
42965;DHT22;28604;51.204;22.552;2023-04-30T03:28:14;11.00;68.30
42965;DHT22;28604;51.204;22.552;2023-04-30T03:30:40;11.00;68.20
42965;DHT22;28604;51.204;22.552;2023-04-30T03:33:07;11.00;68.10
42965;DHT22;28604;51.204;22.552;2023-04-30T03:35:33;11.10;68.00
42965;DHT22;28604;51.204;22.552;2023-04-30T03:38:00;11.10;68.10
42965;DHT22;28604;51.204;22.552;2023-04-30T03:40:26;11.10;67.80
42965;DHT22;28604;51.204;22.552;2023-04-30T03:42:52;11.10;67.90
42965;DHT22;28604;51.204;22.552;2023-04-30T03:45:18;11.10;67.90
42965;DHT22;28604;51.204;22.552;2023-04-30T03:47:44;11.10;67.60
42965;DHT22;28604;51.204;22.552;2023-04-30T03:50:10;11.20;67.80
42965;DHT22;28604;51.204;22.552;2023-04-30T03:52:37;11.20;68.10
42965;DHT22;28604;51.204;22.552;2023-04-30T03:55:04;11.20;68.40
42965;DHT22;28604;51.204;22.552;2023-04-30T03:57:31;11.30;68.80
42965;DHT22;28604;51.204;22.552;2023-04-30T03:59:58;11.20;68.80
42965;DHT22;28604;51.204;22.552;2023-04-30T04:02:24;11.30;69.00
42965;DHT22;28604;51.204;22.552;2023-04-30T04:04:51;11.30;69.00
42965;DHT22;28604;51.204;22.552;2023-04-30T04:07:17;11.30;69.40
42965;DHT22;28604;51.204;22.552;2023-04-30T04:09:45;11.40;69.10
42965;DHT22;28604;51.204;22.552;2023-04-30T04:12:11;11.40;69.10
42965;DHT22;28604;51.204;22.552;2023-04-30T04:14:36;11.40;68.90
42965;DHT22;28604;51.204;22.552;2023-04-30T04:17:02;11.50;69.00
42965;DHT22;28604;51.204;22.552;2023-04-30T04:19:31;11.50;69.20
42965;DHT22;28604;51.204;22.552;2023-04-30T04:21:57;11.50;69.60
42965;DHT22;28604;51.204;22.552;2023-04-30T04:24:24;11.60;69.30
42965;DHT22;28604;51.204;22.552;2023-04-30T04:26:50;11.60;69.30
42965;DHT22;28604;51.204;22.552;2023-04-30T04:29:17;11.70;69.60
42965;DHT22;28604;51.204;22.552;2023-04-30T04:31:43;11.70;69.80
42965;DHT22;28604;51.204;22.552;2023-04-30T04:34:10;11.70;70.60
42965;DHT22;28604;51.204;22.552;2023-04-30T04:36:36;11.80;70.10
42965;DHT22;28604;51.204;22.552;2023-04-30T04:39:02;11.90;70.00
42965;DHT22;28604;51.204;22.552;2023-04-30T04:41:30;11.90;70.10
42965;DHT22;28604;51.204;22.552;2023-04-30T04:43:57;11.90;69.70
42965;DHT22;28604;51.204;22.552;2023-04-30T04:46:24;12.00;69.60
42965;DHT22;28604;51.204;22.552;2023-04-30T04:48:51;12.00;69.60
42965;DHT22;28604;51.204;22.552;2023-04-30T04:51:17;12.10;69.20
42965;DHT22;28604;51.204;22.552;2023-04-30T04:53:43;12.10;69.20
42965;DHT22;28604;51.204;22.552;2023-04-30T04:56:09;12.10;68.90
42965;DHT22;28604;51.204;22.552;2023-04-30T04:58:35;12.20;68.90
42965;DHT22;28604;51.204;22.552;2023-04-30T05:01:02;12.20;68.90
42965;DHT22;28604;51.204;22.552;2023-04-30T05:03:30;12.30;68.60
42965;DHT22;28604;51.204;22.552;2023-04-30T05:05:57;12.30;68.30
42965;DHT22;28604;51.204;22.552;2023-04-30T05:08:24;12.40;68.10
42965;DHT22;28604;51.204;22.552;2023-04-30T05:10:51;12.40;68.00
42965;DHT22;28604;51.204;22.552;2023-04-30T05:13:18;12.50;67.60
42965;DHT22;28604;51.204;22.552;2023-04-30T05:15:44;12.50;67.50
42965;DHT22;28604;51.204;22.552;2023-04-30T05:18:09;12.50;67.50
42965;DHT22;28604;51.204;22.552;2023-04-30T05:20:36;12.60;67.50
42965;DHT22;28604;51.204;22.552;2023-04-30T05:23:01;12.60;67.20
42965;DHT22;28604;51.204;22.552;2023-04-30T05:25:28;12.60;67.30
42965;DHT22;28604;51.204;22.552;2023-04-30T05:27:54;12.70;67.20
42965;DHT22;28604;51.204;22.552;2023-04-30T05:30:21;12.70;67.10
42965;DHT22;28604;51.204;22.552;2023-04-30T05:32:47;12.70;67.20
42965;DHT22;28604;51.204;22.552;2023-04-30T05:35:17;12.80;67.10
42965;DHT22;28604;51.204;22.552;2023-04-30T05:37:43;12.80;67.10
42965;DHT22;28604;51.204;22.552;2023-04-30T05:40:10;12.80;67.30
42965;DHT22;28604;51.204;22.552;2023-04-30T05:42:36;12.90;67.80
42965;DHT22;28604;51.204;22.552;2023-04-30T05:45:03;12.90;67.50
42965;DHT22;28604;51.204;22.552;2023-04-30T05:47:29;13.00;67.70
42965;DHT22;28604;51.204;22.552;2023-04-30T05:49:56;13.10;67.80
42965;DHT22;28604;51.204;22.552;2023-04-30T05:52:22;13.10;67.80
42965;DHT22;28604;51.204;22.552;2023-04-30T05:54:48;13.20;68.10
42965;DHT22;28604;51.204;22.552;2023-04-30T05:57:15;13.20;68.10
42965;DHT22;28604;51.204;22.552;2023-04-30T05:59:41;13.20;68.10
42965;DHT22;28604;51.204;22.552;2023-04-30T06:02:07;13.20;68.20
42965;DHT22;28604;51.204;22.552;2023-04-30T06:04:33;13.20;68.10
42965;DHT22;28604;51.204;22.552;2023-04-30T06:06:59;13.30;68.20
42965;DHT22;28604;51.204;22.552;2023-04-30T06:09:26;13.40;68.40
42965;DHT22;28604;51.204;22.552;2023-04-30T06:11:52;13.40;68.10
42965;DHT22;28604;51.204;22.552;2023-04-30T06:14:18;13.50;68.00
42965;DHT22;28604;51.204;22.552;2023-04-30T06:16:45;13.50;68.20
42965;DHT22;28604;51.204;22.552;2023-04-30T06:19:11;13.70;68.90
42965;DHT22;28604;51.204;22.552;2023-04-30T06:21:37;13.80;68.40
42965;DHT22;28604;51.204;22.552;2023-04-30T06:24:04;13.90;68.80
42965;DHT22;28604;51.204;22.552;2023-04-30T06:26:30;14.20;68.40
42965;DHT22;28604;51.204;22.552;2023-04-30T06:28:56;14.50;68.10
42965;DHT22;28604;51.204;22.552;2023-04-30T06:31:22;14.80;67.90
42965;DHT22;28604;51.204;22.552;2023-04-30T06:33:48;15.20;67.50
42965;DHT22;28604;51.204;22.552;2023-04-30T06:36:15;15.70;66.80
42965;DHT22;28604;51.204;22.552;2023-04-30T06:38:41;16.10;66.00
42965;DHT22;28604;51.204;22.552;2023-04-30T06:41:07;16.50;65.30
42965;DHT22;28604;51.204;22.552;2023-04-30T06:43:33;16.70;65.50
42965;DHT22;28604;51.204;22.552;2023-04-30T06:45:59;16.80;66.30
42965;DHT22;28604;51.204;22.552;2023-04-30T06:48:25;16.80;67.10
42965;DHT22;28604;51.204;22.552;2023-04-30T06:50:51;16.80;67.60
42965;DHT22;28604;51.204;22.552;2023-04-30T06:53:17;16.80;68.20
42965;DHT22;28604;51.204;22.552;2023-04-30T06:55:44;16.90;68.60
42965;DHT22;28604;51.204;22.552;2023-04-30T06:58:11;16.80;68.60
42965;DHT22;28604;51.204;22.552;2023-04-30T07:00:37;16.80;68.50
42965;DHT22;28604;51.204;22.552;2023-04-30T07:03:03;16.70;68.80
42965;DHT22;28604;51.204;22.552;2023-04-30T07:05:30;16.80;68.90
42965;DHT22;28604;51.204;22.552;2023-04-30T07:07:57;16.90;68.80
42965;DHT22;28604;51.204;22.552;2023-04-30T07:10:22;17.00;68.80
42965;DHT22;28604;51.204;22.552;2023-04-30T07:12:48;17.10;68.50
42965;DHT22;28604;51.204;22.552;2023-04-30T07:15:14;17.20;68.40
42965;DHT22;28604;51.204;22.552;2023-04-30T07:17:41;17.30;68.30
42965;DHT22;28604;51.204;22.552;2023-04-30T07:20:07;17.40;68.30
42965;DHT22;28604;51.204;22.552;2023-04-30T07:22:34;17.40;68.40
42965;DHT22;28604;51.204;22.552;2023-04-30T07:25:00;17.30;68.50
42965;DHT22;28604;51.204;22.552;2023-04-30T07:27:26;17.30;69.00
42965;DHT22;28604;51.204;22.552;2023-04-30T07:29:53;17.30;68.80
42965;DHT22;28604;51.204;22.552;2023-04-30T07:32:20;17.20;69.10
42965;DHT22;28604;51.204;22.552;2023-04-30T07:34:45;17.20;69.20
42965;DHT22;28604;51.204;22.552;2023-04-30T07:37:11;17.20;69.70
42965;DHT22;28604;51.204;22.552;2023-04-30T07:39:38;17.20;69.80
42965;DHT22;28604;51.204;22.552;2023-04-30T07:42:06;17.10;70.00
42965;DHT22;28604;51.204;22.552;2023-04-30T07:44:31;17.10;70.10
42965;DHT22;28604;51.204;22.552;2023-04-30T07:46:59;16.90;70.00
42965;DHT22;28604;51.204;22.552;2023-04-30T07:49:25;16.90;70.20
42965;DHT22;28604;51.204;22.552;2023-04-30T07:51:51;16.90;70.10
42965;DHT22;28604;51.204;22.552;2023-04-30T07:54:16;16.80;70.80
42965;DHT22;28604;51.204;22.552;2023-04-30T07:56:42;16.70;72.50
42965;DHT22;28604;51.204;22.552;2023-04-30T07:59:08;16.70;72.70
42965;DHT22;28604;51.204;22.552;2023-04-30T08:01:34;16.70;75.00
42965;DHT22;28604;51.204;22.552;2023-04-30T08:04:00;16.60;78.00
42965;DHT22;28604;51.204;22.552;2023-04-30T08:06:26;16.30;79.30
42965;DHT22;28604;51.204;22.552;2023-04-30T08:08:52;16.20;80.60
42965;DHT22;28604;51.204;22.552;2023-04-30T08:11:18;16.10;80.80
42965;DHT22;28604;51.204;22.552;2023-04-30T08:13:44;16.00;80.70
42965;DHT22;28604;51.204;22.552;2023-04-30T08:16:11;15.90;80.30
42965;DHT22;28604;51.204;22.552;2023-04-30T08:18:37;15.70;82.50
42965;DHT22;28604;51.204;22.552;2023-04-30T08:21:12;15.50;82.70
42965;DHT22;28604;51.204;22.552;2023-04-30T08:23:38;15.40;82.00
42965;DHT22;28604;51.204;22.552;2023-04-30T08:26:04;15.30;82.70
42965;DHT22;28604;51.204;22.552;2023-04-30T08:28:30;15.10;82.80
42965;DHT22;28604;51.204;22.552;2023-04-30T08:30:56;15.00;82.90
42965;DHT22;28604;51.204;22.552;2023-04-30T08:33:22;14.90;83.40
42965;DHT22;28604;51.204;22.552;2023-04-30T08:35:48;14.80;83.10
42965;DHT22;28604;51.204;22.552;2023-04-30T08:38:14;14.70;84.20
42965;DHT22;28604;51.204;22.552;2023-04-30T08:40:40;14.60;84.20
42965;DHT22;28604;51.204;22.552;2023-04-30T08:43:08;14.50;84.00
42965;DHT22;28604;51.204;22.552;2023-04-30T08:45:35;14.40;83.40
42965;DHT22;28604;51.204;22.552;2023-04-30T08:48:09;14.30;84.00
42965;DHT22;28604;51.204;22.552;2023-04-30T08:50:38;14.20;85.00
42965;DHT22;28604;51.204;22.552;2023-04-30T08:53:04;14.10;84.40
42965;DHT22;28604;51.204;22.552;2023-04-30T08:55:33;14.10;84.30
42965;DHT22;28604;51.204;22.552;2023-04-30T08:57:59;14.00;85.30
42965;DHT22;28604;51.204;22.552;2023-04-30T09:00:25;14.00;84.10
42965;DHT22;28604;51.204;22.552;2023-04-30T09:02:52;14.00;84.30
42965;DHT22;28604;51.204;22.552;2023-04-30T09:05:18;13.90;84.20
42965;DHT22;28604;51.204;22.552;2023-04-30T09:07:45;13.90;84.90
42965;DHT22;28604;51.204;22.552;2023-04-30T09:10:17;13.90;83.80
42965;DHT22;28604;51.204;22.552;2023-04-30T09:12:44;13.90;83.80
42965;DHT22;28604;51.204;22.552;2023-04-30T09:15:23;13.90;83.60
42965;DHT22;28604;51.204;22.552;2023-04-30T09:17:48;13.90;84.10
42965;DHT22;28604;51.204;22.552;2023-04-30T09:20:15;13.80;85.00
42965;DHT22;28604;51.204;22.552;2023-04-30T09:22:41;13.80;84.10
42965;DHT22;28604;51.204;22.552;2023-04-30T09:25:08;13.80;84.40
42965;DHT22;28604;51.204;22.552;2023-04-30T09:27:34;13.80;84.30
42965;DHT22;28604;51.204;22.552;2023-04-30T09:30:01;13.80;84.40
42965;DHT22;28604;51.204;22.552;2023-04-30T09:32:27;13.70;84.40
42965;DHT22;28604;51.204;22.552;2023-04-30T09:34:54;13.60;85.40
42965;DHT22;28604;51.204;22.552;2023-04-30T09:37:20;13.70;85.10
42965;DHT22;28604;51.204;22.552;2023-04-30T09:39:53;13.60;85.40
42965;DHT22;28604;51.204;22.552;2023-04-30T09:42:19;13.60;85.90
42965;DHT22;28604;51.204;22.552;2023-04-30T09:44:46;13.60;85.40
42965;DHT22;28604;51.204;22.552;2023-04-30T09:47:14;13.50;85.60
42965;DHT22;28604;51.204;22.552;2023-04-30T09:49:42;13.60;86.00
42965;DHT22;28604;51.204;22.552;2023-04-30T09:52:09;13.60;86.00
42965;DHT22;28604;51.204;22.552;2023-04-30T09:54:37;13.70;84.90
42965;DHT22;28604;51.204;22.552;2023-04-30T09:57:03;13.80;84.60
42965;DHT22;28604;51.204;22.552;2023-04-30T09:59:31;13.80;84.80
42965;DHT22;28604;51.204;22.552;2023-04-30T10:02:01;13.90;84.70
42965;DHT22;28604;51.204;22.552;2023-04-30T10:04:36;13.80;84.20
42965;DHT22;28604;51.204;22.552;2023-04-30T10:07:13;13.90;84.90
42965;DHT22;28604;51.204;22.552;2023-04-30T10:10:09;13.90;84.70
42965;DHT22;28604;51.204;22.552;2023-04-30T10:12:53;13.90;84.60
42965;DHT22;28604;51.204;22.552;2023-04-30T10:15:24;13.90;84.80
42965;DHT22;28604;51.204;22.552;2023-04-30T10:18:03;13.90;84.40
42965;DHT22;28604;51.204;22.552;2023-04-30T10:20:31;14.00;84.10
42965;DHT22;28604;51.204;22.552;2023-04-30T10:22:59;14.00;84.40
42965;DHT22;28604;51.204;22.552;2023-04-30T10:25:27;14.10;83.90
42965;DHT22;28604;51.204;22.552;2023-04-30T10:27:53;14.10;83.50
42965;DHT22;28604;51.204;22.552;2023-04-30T10:30:21;14.20;82.70
42965;DHT22;28604;51.204;22.552;2023-04-30T10:35:55;14.20;81.50
42965;DHT22;28604;51.204;22.552;2023-04-30T10:38:25;14.20;81.00
42965;DHT22;28604;51.204;22.552;2023-04-30T10:41:01;14.40;80.70
42965;DHT22;28604;51.204;22.552;2023-04-30T10:43:29;14.40;80.40
42965;DHT22;28604;51.204;22.552;2023-04-30T10:45:59;14.40;79.90
42965;DHT22;28604;51.204;22.552;2023-04-30T10:48:25;14.50;79.10
42965;DHT22;28604;51.204;22.552;2023-04-30T10:50:55;14.70;78.20
42965;DHT22;28604;51.204;22.552;2023-04-30T10:53:21;14.80;78.20
42965;DHT22;28604;51.204;22.552;2023-04-30T10:56:08;15.00;77.90
42965;DHT22;28604;51.204;22.552;2023-04-30T10:58:36;15.10;77.70
42965;DHT22;28604;51.204;22.552;2023-04-30T11:03:31;15.50;75.80
42965;DHT22;28604;51.204;22.552;2023-04-30T11:06:15;15.70;74.50
42965;DHT22;28604;51.204;22.552;2023-04-30T11:08:45;16.00;74.30
42965;DHT22;28604;51.204;22.552;2023-04-30T11:11:16;16.10;74.30
42965;DHT22;28604;51.204;22.552;2023-04-30T11:13:47;16.30;74.20
42965;DHT22;28604;51.204;22.552;2023-04-30T11:16:16;16.60;74.00
42965;DHT22;28604;51.204;22.552;2023-04-30T11:18:46;16.80;73.00
42965;DHT22;28604;51.204;22.552;2023-04-30T11:21:12;17.10;72.20
42965;DHT22;28604;51.204;22.552;2023-04-30T11:23:42;17.20;71.30
42965;DHT22;28604;51.204;22.552;2023-04-30T11:26:09;17.40;70.30
42965;DHT22;28604;51.204;22.552;2023-04-30T11:28:36;17.40;70.10
42965;DHT22;28604;51.204;22.552;2023-04-30T11:31:03;17.50;69.70
42965;DHT22;28604;51.204;22.552;2023-04-30T11:33:33;17.60;69.10
42965;DHT22;28604;51.204;22.552;2023-04-30T11:36:01;17.60;69.00
42965;DHT22;28604;51.204;22.552;2023-04-30T11:38:33;17.70;68.10
42965;DHT22;28604;51.204;22.552;2023-04-30T11:41:03;17.80;67.70
42965;DHT22;28604;51.204;22.552;2023-04-30T11:43:30;18.00;67.30
42965;DHT22;28604;51.204;22.552;2023-04-30T11:48:38;18.10;65.60
42965;DHT22;28604;51.204;22.552;2023-04-30T11:51:21;18.00;64.90
42965;DHT22;28604;51.204;22.552;2023-04-30T11:53:50;18.10;64.80
42965;DHT22;28604;51.204;22.552;2023-04-30T11:56:20;18.20;64.70
42965;DHT22;28604;51.204;22.552;2023-04-30T11:58:47;18.30;65.00
42965;DHT22;28604;51.204;22.552;2023-04-30T12:01:14;18.50;64.80
42965;DHT22;28604;51.204;22.552;2023-04-30T12:03:44;18.70;62.90
42965;DHT22;28604;51.204;22.552;2023-04-30T12:06:24;18.90;61.90
42965;DHT22;28604;51.204;22.552;2023-04-30T12:08:56;19.00;61.50
42965;DHT22;28604;51.204;22.552;2023-04-30T12:11:27;19.10;61.10
42965;DHT22;28604;51.204;22.552;2023-04-30T12:14:04;19.20;61.00
42965;DHT22;28604;51.204;22.552;2023-04-30T12:16:46;19.30;61.00
42965;DHT22;28604;51.204;22.552;2023-04-30T12:19:18;19.30;59.70
42965;DHT22;28604;51.204;22.552;2023-04-30T12:21:46;19.30;59.70
42965;DHT22;28604;51.204;22.552;2023-04-30T12:24:14;19.30;59.90
42965;DHT22;28604;51.204;22.552;2023-04-30T12:26:42;19.30;59.30
42965;DHT22;28604;51.204;22.552;2023-04-30T12:29:09;19.30;59.40
42965;DHT22;28604;51.204;22.552;2023-04-30T12:31:36;19.40;60.30
42965;DHT22;28604;51.204;22.552;2023-04-30T12:34:07;19.50;60.40
42965;DHT22;28604;51.204;22.552;2023-04-30T12:36:33;19.60;60.10
42965;DHT22;28604;51.204;22.552;2023-04-30T12:39:14;19.70;59.80
42965;DHT22;28604;51.204;22.552;2023-04-30T12:41:45;19.60;59.90
42965;DHT22;28604;51.204;22.552;2023-04-30T12:44:15;19.60;59.30
42965;DHT22;28604;51.204;22.552;2023-04-30T12:46:42;19.60;58.90
42965;DHT22;28604;51.204;22.552;2023-04-30T12:49:08;19.50;57.80
42965;DHT22;28604;51.204;22.552;2023-04-30T12:51:34;19.60;57.70
42965;DHT22;28604;51.204;22.552;2023-04-30T12:54:01;19.60;57.90
42965;DHT22;28604;51.204;22.552;2023-04-30T12:56:27;19.50;56.70
42965;DHT22;28604;51.204;22.552;2023-04-30T12:58:52;19.50;57.40
42965;DHT22;28604;51.204;22.552;2023-04-30T13:01:22;19.50;57.00
42965;DHT22;28604;51.204;22.552;2023-04-30T13:03:49;19.50;57.20
42965;DHT22;28604;51.204;22.552;2023-04-30T13:06:15;19.40;56.90
42965;DHT22;28604;51.204;22.552;2023-04-30T13:08:42;19.50;57.00
42965;DHT22;28604;51.204;22.552;2023-04-30T13:11:09;19.60;57.20
42965;DHT22;28604;51.204;22.552;2023-04-30T13:13:34;19.70;56.80
42965;DHT22;28604;51.204;22.552;2023-04-30T13:16:00;19.90;56.90
42965;DHT22;28604;51.204;22.552;2023-04-30T13:18:27;20.00;55.70
42965;DHT22;28604;51.204;22.552;2023-04-30T13:20:53;19.90;54.60
42965;DHT22;28604;51.204;22.552;2023-04-30T13:23:18;20.00;55.20
42965;DHT22;28604;51.204;22.552;2023-04-30T13:25:45;19.90;55.20
42965;DHT22;28604;51.204;22.552;2023-04-30T13:28:11;19.90;54.70
42965;DHT22;28604;51.204;22.552;2023-04-30T13:30:37;19.80;53.90
42965;DHT22;28604;51.204;22.552;2023-04-30T13:33:03;19.70;54.20
42965;DHT22;28604;51.204;22.552;2023-04-30T13:35:29;19.70;53.80
42965;DHT22;28604;51.204;22.552;2023-04-30T13:37:57;19.50;53.60
42965;DHT22;28604;51.204;22.552;2023-04-30T13:40:23;19.50;54.20
42965;DHT22;28604;51.204;22.552;2023-04-30T13:42:49;19.50;54.00
42965;DHT22;28604;51.204;22.552;2023-04-30T13:45:15;19.40;53.80
42965;DHT22;28604;51.204;22.552;2023-04-30T13:47:41;19.40;52.70
42965;DHT22;28604;51.204;22.552;2023-04-30T13:50:08;19.40;52.80
42965;DHT22;28604;51.204;22.552;2023-04-30T13:52:34;19.40;52.70
42965;DHT22;28604;51.204;22.552;2023-04-30T13:55:00;19.40;52.80
42965;DHT22;28604;51.204;22.552;2023-04-30T13:57:26;19.40;52.50
42965;DHT22;28604;51.204;22.552;2023-04-30T13:59:54;19.40;51.70
42965;DHT22;28604;51.204;22.552;2023-04-30T14:02:21;19.40;51.50
42965;DHT22;28604;51.204;22.552;2023-04-30T14:04:47;19.30;51.50
42965;DHT22;28604;51.204;22.552;2023-04-30T14:07:12;19.30;51.60
42965;DHT22;28604;51.204;22.552;2023-04-30T14:09:47;19.30;51.60
42965;DHT22;28604;51.204;22.552;2023-04-30T14:12:12;19.40;51.40
42965;DHT22;28604;51.204;22.552;2023-04-30T14:14:38;19.40;50.90
42965;DHT22;28604;51.204;22.552;2023-04-30T14:17:04;19.40;51.20
42965;DHT22;28604;51.204;22.552;2023-04-30T14:19:30;19.50;49.80
42965;DHT22;28604;51.204;22.552;2023-04-30T14:21:56;19.70;49.90
42965;DHT22;28604;51.204;22.552;2023-04-30T14:24:22;19.80;49.70
42965;DHT22;28604;51.204;22.552;2023-04-30T14:26:48;19.80;49.40
42965;DHT22;28604;51.204;22.552;2023-04-30T14:29:14;19.80;48.70
42965;DHT22;28604;51.204;22.552;2023-04-30T14:31:40;19.90;47.10
42965;DHT22;28604;51.204;22.552;2023-04-30T14:34:06;19.90;46.10
42965;DHT22;28604;51.204;22.552;2023-04-30T14:36:33;19.90;46.80
42965;DHT22;28604;51.204;22.552;2023-04-30T14:38:59;19.90;47.40
42965;DHT22;28604;51.204;22.552;2023-04-30T14:41:25;19.90;46.10
42965;DHT22;28604;51.204;22.552;2023-04-30T14:43:51;19.80;45.70
42965;DHT22;28604;51.204;22.552;2023-04-30T14:46:17;19.80;46.20
42965;DHT22;28604;51.204;22.552;2023-04-30T14:48:43;19.80;45.70
42965;DHT22;28604;51.204;22.552;2023-04-30T14:51:09;19.80;46.00
42965;DHT22;28604;51.204;22.552;2023-04-30T14:53:35;19.70;46.00
42965;DHT22;28604;51.204;22.552;2023-04-30T14:56:02;19.70;46.20
42965;DHT22;28604;51.204;22.552;2023-04-30T14:58:28;19.70;46.60
42965;DHT22;28604;51.204;22.552;2023-04-30T15:00:54;19.70;46.20
42965;DHT22;28604;51.204;22.552;2023-04-30T15:03:20;19.60;46.30
42965;DHT22;28604;51.204;22.552;2023-04-30T15:05:46;19.60;46.30
42965;DHT22;28604;51.204;22.552;2023-04-30T15:08:14;19.60;46.10
42965;DHT22;28604;51.204;22.552;2023-04-30T15:10:41;19.60;46.50
42965;DHT22;28604;51.204;22.552;2023-04-30T15:13:07;19.60;46.80
42965;DHT22;28604;51.204;22.552;2023-04-30T15:15:33;19.50;46.20
42965;DHT22;28604;51.204;22.552;2023-04-30T15:17:59;19.40;45.80
42965;DHT22;28604;51.204;22.552;2023-04-30T15:20:26;19.40;45.00
42965;DHT22;28604;51.204;22.552;2023-04-30T15:22:52;19.30;44.50
42965;DHT22;28604;51.204;22.552;2023-04-30T15:25:21;19.30;44.30
42965;DHT22;28604;51.204;22.552;2023-04-30T15:27:51;19.30;44.30
42965;DHT22;28604;51.204;22.552;2023-04-30T15:30:17;19.10;44.50
42965;DHT22;28604;51.204;22.552;2023-04-30T15:32:44;19.10;44.60
42965;DHT22;28604;51.204;22.552;2023-04-30T15:35:10;19.10;44.60
42965;DHT22;28604;51.204;22.552;2023-04-30T15:37:36;19.10;43.40
42965;DHT22;28604;51.204;22.552;2023-04-30T15:40:02;18.90;43.30